This is the latest recevied weather packets stored in our database for station/object DB0SMU-12. If no packets are shown the sender has not sent any weather packets the latest 1 day(s).
| Time | Temp. | Humidity | Pressure | Rain* | Wind** | Luminosity | Snow |
|---|---|---|---|---|---|---|---|
| 1836274823 | 12.78° C | 80% | 1024.3 hPa | - | 4.02 m/s, 225° | - | - |
| 1836274642 | 12.78° C | 81% | 1024.3 hPa | - | 3.13 m/s, 225° | - | - |
| 1836274461 | 12.78° C | 81% | 1024.4 hPa | - | 3.13 m/s, 225° | - | - |
| 1836274434 | 12.78° C | 81% | 1024.3 hPa | - | 3.58 m/s, 224° | - | - |
| 1836274281 | 12.78° C | 82% | 1024.4 hPa | - | 3.58 m/s, 218° | - | - |
| 1836274254 | 12.78° C | 80% | 1024.3 hPa | - | 3.58 m/s, 225° | - | - |
| 1836274100 | 12.78° C | 82% | 1024.4 hPa | - | 3.13 m/s, 213° | - | - |
| 1836273919 | 12.78° C | 83% | 1024.5 hPa | - | 3.13 m/s, 223° | - | - |
| 1778022616 | 11.67° C | 75% | 1010.3 hPa | - | 3.58 m/s, 225° | - | - |
| 1778022436 | 11.67° C | 75% | 1010.4 hPa | - | 3.13 m/s, 225° | - | - |
| 1778022262 | 11.67° C | 75% | 1010.2 hPa | - | 3.58 m/s, 225° | - | - |
| 1778022074 | 11.67° C | 74% | 1010.3 hPa | - | 3.13 m/s, 225° | - | - |
| 1778021893 | 11.67° C | 75% | 1010.3 hPa | - | 2.68 m/s, 225° | - | - |
| 1778021712 | 11.67° C | 75% | 1010.5 hPa | - | 2.68 m/s, 226° | - | - |
| 1778021531 | 11.67° C | 75% | 1010.5 hPa | - | 2.68 m/s, 225° | - | - |
| 1778021350 | 11.67° C | 75% | 1010.6 hPa | - | 2.68 m/s, 230° | - | - |
| 1778021169 | 11.67° C | 75% | 1010.6 hPa | - | 3.13 m/s, 225° | - | - |
| 1778020988 | 11.67° C | 75% | 1010.6 hPa | - | 3.13 m/s, 225° | - | - |
| 1778020808 | 12.22° C | 75% | 1010.6 hPa | - | 3.13 m/s, 225° | - | - |
| 1778020627 | 12.22° C | 75% | 1010.6 hPa | - | 2.24 m/s, 225° | - | - |
| 1778020446 | 12.22° C | 74% | 1010.6 hPa | - | 2.24 m/s, 210° | - | - |
| 1778020265 | 12.22° C | 74% | 1010.6 hPa | - | 2.68 m/s, 208° | - | - |
| 1778020084 | 12.22° C | 74% | 1010.6 hPa | - | 2.68 m/s, 212° | - | - |
| 1778019903 | 12.22° C | 74% | 1010.5 hPa | - | 3.13 m/s, 210° | - | - |
| 1778019722 | 12.22° C | 74% | 1010.5 hPa | - | 3.13 m/s, 219° | - | - |
* Rain since midnight (hover to see other rain measurements)
** Current wind speed in m/s (hover to see current wind gust speed)